sensor_id;sensor_type;location;lat;lon;timestamp;temperature;humidity
8152;DHT22;4117;53.622;9.958;2023-03-01T00:01:28;-0.40;1.00
8152;DHT22;4117;53.622;9.958;2023-03-01T00:03:57;-0.50;1.00
8152;DHT22;4117;53.622;9.958;2023-03-01T00:06:25;-0.50;1.00
8152;DHT22;4117;53.622;9.958;2023-03-01T00:08:52;-0.50;1.00
8152;DHT22;4117;53.622;9.958;2023-03-01T00:11:23;-0.50;1.00
8152;DHT22;4117;53.622;9.958;2023-03-01T00:13:52;-0.50;1.00
8152;DHT22;4117;53.622;9.958;2023-03-01T00:16:21;-0.50;1.00
8152;DHT22;4117;53.622;9.958;2023-03-01T00:18:48;-0.60;1.00
8152;DHT22;4117;53.622;9.958;2023-03-01T00:21:16;-0.50;1.00
8152;DHT22;4117;53.622;9.958;2023-03-01T00:23:43;-0.60;1.00
8152;DHT22;4117;53.622;9.958;2023-03-01T00:26:12;-0.60;1.00
8152;DHT22;4117;53.622;9.958;2023-03-01T00:28:41;-0.70;1.00
8152;DHT22;4117;53.622;9.958;2023-03-01T00:31:11;-0.70;1.00
8152;DHT22;4117;53.622;9.958;2023-03-01T00:33:38;-0.60;1.00
8152;DHT22;4117;53.622;9.958;2023-03-01T00:36:06;-0.70;1.00
8152;DHT22;4117;53.622;9.958;2023-03-01T00:38:35;-0.70;1.00
8152;DHT22;4117;53.622;9.958;2023-03-01T00:41:04;-0.70;1.00
8152;DHT22;4117;53.622;9.958;2023-03-01T00:43:31;-0.70;1.00
8152;DHT22;4117;53.622;9.958;2023-03-01T00:46:04;-0.70;1.00
8152;DHT22;4117;53.622;9.958;2023-03-01T00:48:31;-0.70;1.00
8152;DHT22;4117;53.622;9.958;2023-03-01T00:51:04;-0.70;1.00
8152;DHT22;4117;53.622;9.958;2023-03-01T00:53:31;-0.70;1.00
8152;DHT22;4117;53.622;9.958;2023-03-01T00:55:58;-0.80;1.00
8152;DHT22;4117;53.622;9.958;2023-03-01T00:58:25;-0.80;1.00
8152;DHT22;4117;53.622;9.958;2023-03-01T01:00:52;-0.80;1.00
8152;DHT22;4117;53.622;9.958;2023-03-01T01:03:20;-0.80;1.00
8152;DHT22;4117;53.622;9.958;2023-03-01T01:05:47;-0.90;1.00
8152;DHT22;4117;53.622;9.958;2023-03-01T01:08:14;-0.90;1.00
8152;DHT22;4117;53.622;9.958;2023-03-01T01:10:43;-0.90;1.00
8152;DHT22;4117;53.622;9.958;2023-03-01T01:13:10;-0.90;1.00
8152;DHT22;4117;53.622;9.958;2023-03-01T01:15:38;-0.90;1.00
8152;DHT22;4117;53.622;9.958;2023-03-01T01:18:06;-0.90;1.00
8152;DHT22;4117;53.622;9.958;2023-03-01T01:20:35;-0.90;1.00
8152;DHT22;4117;53.622;9.958;2023-03-01T01:23:02;-0.90;1.00
8152;DHT22;4117;53.622;9.958;2023-03-01T01:25:34;-0.90;1.00
8152;DHT22;4117;53.622;9.958;2023-03-01T01:28:01;-1.00;1.00
8152;DHT22;4117;53.622;9.958;2023-03-01T01:30:28;-0.90;1.00
8152;DHT22;4117;53.622;9.958;2023-03-01T01:32:54;-1.00;1.00
8152;DHT22;4117;53.622;9.958;2023-03-01T01:35:21;-1.00;1.00
8152;DHT22;4117;53.622;9.958;2023-03-01T01:37:50;-1.00;1.00
8152;DHT22;4117;53.622;9.958;2023-03-01T01:40:17;-1.10;1.00
8152;DHT22;4117;53.622;9.958;2023-03-01T01:42:44;-1.00;1.00
8152;DHT22;4117;53.622;9.958;2023-03-01T01:45:30;-1.10;1.00
8152;DHT22;4117;53.622;9.958;2023-03-01T01:48:00;-1.10;1.00
8152;DHT22;4117;53.622;9.958;2023-03-01T01:50:28;-1.00;1.00
8152;DHT22;4117;53.622;9.958;2023-03-01T01:53:06;-1.10;1.00
8152;DHT22;4117;53.622;9.958;2023-03-01T01:55:36;-1.00;1.00
8152;DHT22;4117;53.622;9.958;2023-03-01T01:58:07;-1.00;1.00
8152;DHT22;4117;53.622;9.958;2023-03-01T02:00:37;-1.10;1.00
8152;DHT22;4117;53.622;9.958;2023-03-01T02:03:08;-1.10;1.00
8152;DHT22;4117;53.622;9.958;2023-03-01T02:05:40;-1.10;1.00
8152;DHT22;4117;53.622;9.958;2023-03-01T02:08:13;-1.10;1.00
8152;DHT22;4117;53.622;9.958;2023-03-01T02:10:41;-1.10;1.00
8152;DHT22;4117;53.622;9.958;2023-03-01T02:13:08;-1.10;1.00
8152;DHT22;4117;53.622;9.958;2023-03-01T02:15:37;-1.10;1.00
8152;DHT22;4117;53.622;9.958;2023-03-01T02:18:05;-1.20;1.00
8152;DHT22;4117;53.622;9.958;2023-03-01T02:20:35;-1.10;1.00
8152;DHT22;4117;53.622;9.958;2023-03-01T02:23:07;-1.20;1.00
8152;DHT22;4117;53.622;9.958;2023-03-01T02:25:40;-1.20;1.00
8152;DHT22;4117;53.622;9.958;2023-03-01T02:28:21;-1.20;1.00
8152;DHT22;4117;53.622;9.958;2023-03-01T02:30:49;-1.10;1.00
8152;DHT22;4117;53.622;9.958;2023-03-01T02:33:36;-1.10;1.00
8152;DHT22;4117;53.622;9.958;2023-03-01T02:36:08;-1.10;1.00
8152;DHT22;4117;53.622;9.958;2023-03-01T02:38:37;-1.10;1.00
8152;DHT22;4117;53.622;9.958;2023-03-01T02:41:04;-1.20;1.00
8152;DHT22;4117;53.622;9.958;2023-03-01T02:43:34;-1.10;1.00
8152;DHT22;4117;53.622;9.958;2023-03-01T02:46:04;-1.20;1.00
8152;DHT22;4117;53.622;9.958;2023-03-01T02:48:40;-1.20;1.00
8152;DHT22;4117;53.622;9.958;2023-03-01T02:51:18;-1.10;1.00
8152;DHT22;4117;53.622;9.958;2023-03-01T02:53:56;-1.10;1.00
8152;DHT22;4117;53.622;9.958;2023-03-01T02:56:25;-1.10;1.00
8152;DHT22;4117;53.622;9.958;2023-03-01T02:58:54;-1.10;1.00
8152;DHT22;4117;53.622;9.958;2023-03-01T03:01:27;-1.20;1.00
8152;DHT22;4117;53.622;9.958;2023-03-01T03:04:03;-1.20;1.00
8152;DHT22;4117;53.622;9.958;2023-03-01T03:06:30;-1.20;1.00
8152;DHT22;4117;53.622;9.958;2023-03-01T03:08:57;-1.20;1.00
8152;DHT22;4117;53.622;9.958;2023-03-01T03:11:24;-1.20;1.00
8152;DHT22;4117;53.622;9.958;2023-03-01T03:13:51;-1.20;1.00
8152;DHT22;4117;53.622;9.958;2023-03-01T03:16:20;-1.20;1.00
8152;DHT22;4117;53.622;9.958;2023-03-01T03:18:47;-1.20;1.00
8152;DHT22;4117;53.622;9.958;2023-03-01T03:21:15;-1.20;1.00
8152;DHT22;4117;53.622;9.958;2023-03-01T03:23:43;-1.20;1.00
8152;DHT22;4117;53.622;9.958;2023-03-01T03:26:10;-1.20;1.00
8152;DHT22;4117;53.622;9.958;2023-03-01T03:28:39;-1.20;1.00
8152;DHT22;4117;53.622;9.958;2023-03-01T03:31:06;-1.20;1.00
8152;DHT22;4117;53.622;9.958;2023-03-01T03:33:35;-1.20;1.00
8152;DHT22;4117;53.622;9.958;2023-03-01T03:36:02;-1.20;1.00
8152;DHT22;4117;53.622;9.958;2023-03-01T03:38:29;-1.20;1.00
8152;DHT22;4117;53.622;9.958;2023-03-01T03:41:01;-1.20;1.00
8152;DHT22;4117;53.622;9.958;2023-03-01T03:43:30;-1.30;1.00
8152;DHT22;4117;53.622;9.958;2023-03-01T03:45:57;-1.30;1.00
8152;DHT22;4117;53.622;9.958;2023-03-01T03:48:24;-1.30;1.00
8152;DHT22;4117;53.622;9.958;2023-03-01T03:50:54;-1.20;1.00
8152;DHT22;4117;53.622;9.958;2023-03-01T03:53:23;-1.20;1.00
8152;DHT22;4117;53.622;9.958;2023-03-01T03:55:51;-1.10;1.00
8152;DHT22;4117;53.622;9.958;2023-03-01T03:58:19;-1.10;1.00
8152;DHT22;4117;53.622;9.958;2023-03-01T04:00:48;-1.20;1.00
8152;DHT22;4117;53.622;9.958;2023-03-01T04:03:16;-1.10;1.00
8152;DHT22;4117;53.622;9.958;2023-03-01T04:05:44;-1.10;1.00
8152;DHT22;4117;53.622;9.958;2023-03-01T04:08:13;-1.10;1.00
8152;DHT22;4117;53.622;9.958;2023-03-01T04:10:42;-1.00;1.00
8152;DHT22;4117;53.622;9.958;2023-03-01T04:13:11;-1.10;1.00
8152;DHT22;4117;53.622;9.958;2023-03-01T04:15:39;-1.10;1.00
8152;DHT22;4117;53.622;9.958;2023-03-01T04:18:06;-1.00;1.00
8152;DHT22;4117;53.622;9.958;2023-03-01T04:20:35;-1.00;1.00
8152;DHT22;4117;53.622;9.958;2023-03-01T04:23:04;-1.00;1.00
8152;DHT22;4117;53.622;9.958;2023-03-01T04:25:38;-0.90;1.00
8152;DHT22;4117;53.622;9.958;2023-03-01T04:28:06;-1.00;1.00
8152;DHT22;4117;53.622;9.958;2023-03-01T04:30:33;-1.00;1.00
8152;DHT22;4117;53.622;9.958;2023-03-01T04:33:02;-1.10;1.00
8152;DHT22;4117;53.622;9.958;2023-03-01T04:35:30;-1.10;1.00
8152;DHT22;4117;53.622;9.958;2023-03-01T04:37:57;-1.10;1.00
8152;DHT22;4117;53.622;9.958;2023-03-01T04:40:24;-1.00;1.00
8152;DHT22;4117;53.622;9.958;2023-03-01T04:42:52;-0.90;1.00
8152;DHT22;4117;53.622;9.958;2023-03-01T04:45:19;-1.00;1.00
8152;DHT22;4117;53.622;9.958;2023-03-01T04:47:46;-1.00;1.00
8152;DHT22;4117;53.622;9.958;2023-03-01T04:50:15;-0.90;1.00
8152;DHT22;4117;53.622;9.958;2023-03-01T04:52:43;-0.90;1.00
8152;DHT22;4117;53.622;9.958;2023-03-01T04:55:11;-0.90;1.00
8152;DHT22;4117;53.622;9.958;2023-03-01T04:57:38;-1.00;1.00
8152;DHT22;4117;53.622;9.958;2023-03-01T05:00:10;-0.90;1.00
8152;DHT22;4117;53.622;9.958;2023-03-01T05:02:48;-0.90;1.00
8152;DHT22;4117;53.622;9.958;2023-03-01T05:05:22;-0.90;1.00
8152;DHT22;4117;53.622;9.958;2023-03-01T05:07:52;-0.90;1.00
8152;DHT22;4117;53.622;9.958;2023-03-01T05:10:19;-0.80;1.00
8152;DHT22;4117;53.622;9.958;2023-03-01T05:12:46;-0.70;1.00
8152;DHT22;4117;53.622;9.958;2023-03-01T05:15:15;-0.80;1.00
8152;DHT22;4117;53.622;9.958;2023-03-01T05:17:42;-0.80;1.00
8152;DHT22;4117;53.622;9.958;2023-03-01T05:20:10;-0.80;1.00
8152;DHT22;4117;53.622;9.958;2023-03-01T05:22:37;-0.80;1.00
8152;DHT22;4117;53.622;9.958;2023-03-01T05:25:05;-0.70;1.00
8152;DHT22;4117;53.622;9.958;2023-03-01T05:27:32;-0.70;1.00
8152;DHT22;4117;53.622;9.958;2023-03-01T05:29:59;-0.70;1.00
8152;DHT22;4117;53.622;9.958;2023-03-01T05:32:40;-0.70;1.00
8152;DHT22;4117;53.622;9.958;2023-03-01T05:35:09;-0.60;1.00
8152;DHT22;4117;53.622;9.958;2023-03-01T05:37:39;-0.60;1.00
8152;DHT22;4117;53.622;9.958;2023-03-01T05:40:08;-0.60;1.00
8152;DHT22;4117;53.622;9.958;2023-03-01T05:42:42;-0.50;1.00
8152;DHT22;4117;53.622;9.958;2023-03-01T05:45:09;-0.50;1.00
8152;DHT22;4117;53.622;9.958;2023-03-01T05:47:39;-0.50;1.00
8152;DHT22;4117;53.622;9.958;2023-03-01T05:50:11;-0.40;1.00
8152;DHT22;4117;53.622;9.958;2023-03-01T05:52:38;-0.40;1.00
8152;DHT22;4117;53.622;9.958;2023-03-01T05:55:06;-0.40;1.00
8152;DHT22;4117;53.622;9.958;2023-03-01T05:57:33;-0.40;1.00
8152;DHT22;4117;53.622;9.958;2023-03-01T06:00:01;-0.40;1.00
8152;DHT22;4117;53.622;9.958;2023-03-01T06:02:28;-0.40;1.00
8152;DHT22;4117;53.622;9.958;2023-03-01T06:04:57;-0.40;1.00
8152;DHT22;4117;53.622;9.958;2023-03-01T06:07:24;-0.50;1.00
8152;DHT22;4117;53.622;9.958;2023-03-01T06:09:51;-0.40;1.00
8152;DHT22;4117;53.622;9.958;2023-03-01T06:12:19;-0.40;1.00
8152;DHT22;4117;53.622;9.958;2023-03-01T06:14:46;-0.40;1.00
8152;DHT22;4117;53.622;9.958;2023-03-01T06:17:13;-0.40;1.00
8152;DHT22;4117;53.622;9.958;2023-03-01T06:19:40;-0.40;1.00
8152;DHT22;4117;53.622;9.958;2023-03-01T06:22:08;-0.40;1.00
8152;DHT22;4117;53.622;9.958;2023-03-01T06:24:35;-0.50;1.00
8152;DHT22;4117;53.622;9.958;2023-03-01T06:27:02;-0.50;1.00
8152;DHT22;4117;53.622;9.958;2023-03-01T06:29:29;-0.40;1.00
8152;DHT22;4117;53.622;9.958;2023-03-01T06:31:56;-0.40;1.00
8152;DHT22;4117;53.622;9.958;2023-03-01T06:34:23;-0.40;1.00
8152;DHT22;4117;53.622;9.958;2023-03-01T06:36:50;-0.40;1.00
8152;DHT22;4117;53.622;9.958;2023-03-01T06:39:19;-0.40;1.00
8152;DHT22;4117;53.622;9.958;2023-03-01T06:41:45;-0.40;1.00
8152;DHT22;4117;53.622;9.958;2023-03-01T06:44:12;-0.40;1.00
8152;DHT22;4117;53.622;9.958;2023-03-01T06:46:40;-0.40;1.00
8152;DHT22;4117;53.622;9.958;2023-03-01T06:49:06;-0.40;1.00
8152;DHT22;4117;53.622;9.958;2023-03-01T06:51:35;-0.30;1.40
8152;DHT22;4117;53.622;9.958;2023-03-01T06:54:03;-0.30;1.00
8152;DHT22;4117;53.622;9.958;2023-03-01T06:56:32;-0.30;1.00
8152;DHT22;4117;53.622;9.958;2023-03-01T06:58:59;-0.20;1.00
8152;DHT22;4117;53.622;9.958;2023-03-01T07:01:28;-0.10;1.00
8152;DHT22;4117;53.622;9.958;2023-03-01T07:03:55;-0.10;1.00
8152;DHT22;4117;53.622;9.958;2023-03-01T07:06:22;0.00;1.00
8152;DHT22;4117;53.622;9.958;2023-03-01T07:08:49;0.00;1.50
8152;DHT22;4117;53.622;9.958;2023-03-01T07:11:16;0.00;1.00
8152;DHT22;4117;53.622;9.958;2023-03-01T07:13:44;0.00;1.00
8152;DHT22;4117;53.622;9.958;2023-03-01T07:16:11;0.00;1.00
8152;DHT22;4117;53.622;9.958;2023-03-01T07:18:39;0.00;1.00
8152;DHT22;4117;53.622;9.958;2023-03-01T07:21:07;0.10;1.00
8152;DHT22;4117;53.622;9.958;2023-03-01T07:23:35;0.20;1.00
8152;DHT22;4117;53.622;9.958;2023-03-01T07:26:02;0.20;1.00
8152;DHT22;4117;53.622;9.958;2023-03-01T07:28:30;0.30;1.00
8152;DHT22;4117;53.622;9.958;2023-03-01T07:31:03;0.30;1.00
8152;DHT22;4117;53.622;9.958;2023-03-01T07:33:30;0.30;1.00
8152;DHT22;4117;53.622;9.958;2023-03-01T07:35:58;0.40;1.00
8152;DHT22;4117;53.622;9.958;2023-03-01T07:38:25;0.50;1.00
8152;DHT22;4117;53.622;9.958;2023-03-01T07:40:53;0.50;1.00
8152;DHT22;4117;53.622;9.958;2023-03-01T07:43:20;0.60;1.00
8152;DHT22;4117;53.622;9.958;2023-03-01T07:45:47;0.70;1.00
8152;DHT22;4117;53.622;9.958;2023-03-01T07:48:15;0.70;1.00
8152;DHT22;4117;53.622;9.958;2023-03-01T07:50:42;0.70;1.00
8152;DHT22;4117;53.622;9.958;2023-03-01T07:53:09;0.80;1.00
8152;DHT22;4117;53.622;9.958;2023-03-01T07:55:37;0.80;1.00
8152;DHT22;4117;53.622;9.958;2023-03-01T07:58:03;0.90;1.00
8152;DHT22;4117;53.622;9.958;2023-03-01T08:00:30;0.90;1.00
8152;DHT22;4117;53.622;9.958;2023-03-01T08:02:59;1.00;1.00
8152;DHT22;4117;53.622;9.958;2023-03-01T08:05:28;1.10;1.00
8152;DHT22;4117;53.622;9.958;2023-03-01T08:07:55;1.10;1.00
8152;DHT22;4117;53.622;9.958;2023-03-01T08:10:22;1.10;1.00
8152;DHT22;4117;53.622;9.958;2023-03-01T08:12:51;1.20;1.00
8152;DHT22;4117;53.622;9.958;2023-03-01T08:15:18;1.20;1.00
8152;DHT22;4117;53.622;9.958;2023-03-01T08:17:45;1.30;1.00
8152;DHT22;4117;53.622;9.958;2023-03-01T08:20:12;1.30;1.00
8152;DHT22;4117;53.622;9.958;2023-03-01T08:22:40;1.30;1.00
8152;DHT22;4117;53.622;9.958;2023-03-01T08:25:08;1.40;1.00
8152;DHT22;4117;53.622;9.958;2023-03-01T08:27:35;1.40;1.00
8152;DHT22;4117;53.622;9.958;2023-03-01T08:30:02;1.50;1.00
8152;DHT22;4117;53.622;9.958;2023-03-01T08:32:29;1.50;1.00
8152;DHT22;4117;53.622;9.958;2023-03-01T08:34:56;1.60;1.00
8152;DHT22;4117;53.622;9.958;2023-03-01T08:37:23;1.60;1.00
8152;DHT22;4117;53.622;9.958;2023-03-01T08:39:51;1.60;1.00
8152;DHT22;4117;53.622;9.958;2023-03-01T08:42:20;1.60;1.00
8152;DHT22;4117;53.622;9.958;2023-03-01T08:44:47;1.60;1.00
8152;DHT22;4117;53.622;9.958;2023-03-01T08:47:14;1.60;1.00
8152;DHT22;4117;53.622;9.958;2023-03-01T08:49:41;1.70;1.00
8152;DHT22;4117;53.622;9.958;2023-03-01T08:52:08;1.80;1.00
8152;DHT22;4117;53.622;9.958;2023-03-01T08:54:36;1.80;1.00
8152;DHT22;4117;53.622;9.958;2023-03-01T08:57:04;1.80;1.00
8152;DHT22;4117;53.622;9.958;2023-03-01T08:59:31;1.80;1.00
8152;DHT22;4117;53.622;9.958;2023-03-01T09:02:02;1.90;1.00
8152;DHT22;4117;53.622;9.958;2023-03-01T09:04:29;1.90;1.00
8152;DHT22;4117;53.622;9.958;2023-03-01T09:06:56;2.00;1.00
8152;DHT22;4117;53.622;9.958;2023-03-01T09:09:23;2.00;1.00
8152;DHT22;4117;53.622;9.958;2023-03-01T09:11:50;2.00;1.00
8152;DHT22;4117;53.622;9.958;2023-03-01T09:14:18;2.10;1.00
8152;DHT22;4117;53.622;9.958;2023-03-01T09:16:46;2.10;1.00
8152;DHT22;4117;53.622;9.958;2023-03-01T09:19:13;2.10;1.00
8152;DHT22;4117;53.622;9.958;2023-03-01T09:21:41;2.10;1.00
8152;DHT22;4117;53.622;9.958;2023-03-01T09:24:19;2.20;1.00
8152;DHT22;4117;53.622;9.958;2023-03-01T09:26:47;2.30;1.00
8152;DHT22;4117;53.622;9.958;2023-03-01T09:29:14;2.30;1.80
8152;DHT22;4117;53.622;9.958;2023-03-01T09:31:43;2.40;1.00
8152;DHT22;4117;53.622;9.958;2023-03-01T09:34:10;2.40;1.00
8152;DHT22;4117;53.622;9.958;2023-03-01T09:36:37;2.40;1.30
8152;DHT22;4117;53.622;9.958;2023-03-01T09:39:04;2.50;1.00
8152;DHT22;4117;53.622;9.958;2023-03-01T09:41:44;2.50;1.30
8152;DHT22;4117;53.622;9.958;2023-03-01T09:44:18;2.50;1.40
8152;DHT22;4117;53.622;9.958;2023-03-01T09:46:49;2.60;1.00
8152;DHT22;4117;53.622;9.958;2023-03-01T09:49:19;2.60;1.30
8152;DHT22;4117;53.622;9.958;2023-03-01T09:51:55;2.70;1.50
8152;DHT22;4117;53.622;9.958;2023-03-01T09:54:23;2.70;1.00
8152;DHT22;4117;53.622;9.958;2023-03-01T09:57:02;2.70;1.00
8152;DHT22;4117;53.622;9.958;2023-03-01T09:59:37;2.80;1.60
8152;DHT22;4117;53.622;9.958;2023-03-01T10:02:21;2.80;1.50
8152;DHT22;4117;53.622;9.958;2023-03-01T10:04:49;2.90;1.00
8152;DHT22;4117;53.622;9.958;2023-03-01T10:07:25;2.90;1.00
8152;DHT22;4117;53.622;9.958;2023-03-01T10:09:53;3.00;1.60
8152;DHT22;4117;53.622;9.958;2023-03-01T10:12:23;3.00;1.00
8152;DHT22;4117;53.622;9.958;2023-03-01T10:14:57;3.00;1.00
8152;DHT22;4117;53.622;9.958;2023-03-01T10:17:33;3.00;1.70
8152;DHT22;4117;53.622;9.958;2023-03-01T10:20:18;3.00;1.70
8152;DHT22;4117;53.622;9.958;2023-03-01T10:22:46;3.10;1.50
8152;DHT22;4117;53.622;9.958;2023-03-01T10:25:24;3.10;1.00
8152;DHT22;4117;53.622;9.958;2023-03-01T10:27:54;3.10;1.00
8152;DHT22;4117;53.622;9.958;2023-03-01T10:30:32;3.10;1.00
8152;DHT22;4117;53.622;9.958;2023-03-01T10:33:13;3.20;1.40
8152;DHT22;4117;53.622;9.958;2023-03-01T10:35:41;3.20;1.00
8152;DHT22;4117;53.622;9.958;2023-03-01T10:38:10;3.30;1.50
8152;DHT22;4117;53.622;9.958;2023-03-01T10:40:52;3.30;1.00
8152;DHT22;4117;53.622;9.958;2023-03-01T10:43:19;3.40;1.80
8152;DHT22;4117;53.622;9.958;2023-03-01T10:45:47;3.40;1.00
8152;DHT22;4117;53.622;9.958;2023-03-01T10:48:17;3.40;1.00
8152;DHT22;4117;53.622;9.958;2023-03-01T10:50:46;3.50;1.00
8152;DHT22;4117;53.622;9.958;2023-03-01T10:53:25;3.50;1.00
8152;DHT22;4117;53.622;9.958;2023-03-01T10:55:59;3.60;1.00
8152;DHT22;4117;53.622;9.958;2023-03-01T10:58:27;3.60;1.60
8152;DHT22;4117;53.622;9.958;2023-03-01T11:00:56;3.60;1.00
8152;DHT22;4117;53.622;9.958;2023-03-01T11:03:26;3.60;1.00
8152;DHT22;4117;53.622;9.958;2023-03-01T11:05:56;3.60;1.00
8152;DHT22;4117;53.622;9.958;2023-03-01T11:08:39;3.70;1.00
8152;DHT22;4117;53.622;9.958;2023-03-01T11:11:25;3.70;1.50
8152;DHT22;4117;53.622;9.958;2023-03-01T11:13:58;3.80;1.50
8152;DHT22;4117;53.622;9.958;2023-03-01T11:16:34;3.80;1.00
8152;DHT22;4117;53.622;9.958;2023-03-01T11:19:16;3.90;1.00
8152;DHT22;4117;53.622;9.958;2023-03-01T11:21:51;3.90;1.00
8152;DHT22;4117;53.622;9.958;2023-03-01T11:24:26;3.90;1.00
8152;DHT22;4117;53.622;9.958;2023-03-01T11:26:54;4.00;1.00
8152;DHT22;4117;53.622;9.958;2023-03-01T11:29:27;4.00;1.00
8152;DHT22;4117;53.622;9.958;2023-03-01T11:31:59;4.10;1.00
8152;DHT22;4117;53.622;9.958;2023-03-01T11:34:38;4.20;1.60
8152;DHT22;4117;53.622;9.958;2023-03-01T11:37:15;4.30;1.00
8152;DHT22;4117;53.622;9.958;2023-03-01T11:39:47;4.40;1.00
8152;DHT22;4117;53.622;9.958;2023-03-01T11:42:19;4.40;1.00
8152;DHT22;4117;53.622;9.958;2023-03-01T11:44:50;4.50;1.30
8152;DHT22;4117;53.622;9.958;2023-03-01T11:47:29;4.60;1.00
8152;DHT22;4117;53.622;9.958;2023-03-01T11:50:27;4.70;1.00
8152;DHT22;4117;53.622;9.958;2023-03-01T11:56:03;4.90;1.00
8152;DHT22;4117;53.622;9.958;2023-03-01T11:58:50;4.90;1.00
8152;DHT22;4117;53.622;9.958;2023-03-01T12:01:37;5.10;1.00
8152;DHT22;4117;53.622;9.958;2023-03-01T12:04:36;5.30;1.00
8152;DHT22;4117;53.622;9.958;2023-03-01T12:07:19;5.40;1.00
8152;DHT22;4117;53.622;9.958;2023-03-01T12:09:57;5.60;1.00
8152;DHT22;4117;53.622;9.958;2023-03-01T12:12:36;5.70;1.00
8152;DHT22;4117;53.622;9.958;2023-03-01T12:15:33;5.70;1.00
8152;DHT22;4117;53.622;9.958;2023-03-01T12:18:18;5.90;1.00
8152;DHT22;4117;53.622;9.958;2023-03-01T12:20:53;5.80;1.00
8152;DHT22;4117;53.622;9.958;2023-03-01T12:23:54;6.00;1.00
8152;DHT22;4117;53.622;9.958;2023-03-01T12:26:29;6.10;1.00
8152;DHT22;4117;53.622;9.958;2023-03-01T12:29:07;6.30;1.00
8152;DHT22;4117;53.622;9.958;2023-03-01T12:31:59;6.50;1.00
8152;DHT22;4117;53.622;9.958;2023-03-01T12:37:36;6.60;1.00
8152;DHT22;4117;53.622;9.958;2023-03-01T12:40:26;6.50;1.00
8152;DHT22;4117;53.622;9.958;2023-03-01T12:43:13;6.50;1.00
8152;DHT22;4117;53.622;9.958;2023-03-01T12:46:01;6.60;1.00
8152;DHT22;4117;53.622;9.958;2023-03-01T12:48:40;6.50;1.00
8152;DHT22;4117;53.622;9.958;2023-03-01T12:51:13;6.40;1.00
8152;DHT22;4117;53.622;9.958;2023-03-01T12:53:42;6.50;1.00
8152;DHT22;4117;53.622;9.958;2023-03-01T12:56:15;6.40;1.00
8152;DHT22;4117;53.622;9.958;2023-03-01T12:59:01;6.40;1.00
8152;DHT22;4117;53.622;9.958;2023-03-01T13:01:39;6.40;1.00
8152;DHT22;4117;53.622;9.958;2023-03-01T13:04:18;6.40;1.00
8152;DHT22;4117;53.622;9.958;2023-03-01T13:06:54;6.30;1.00
8152;DHT22;4117;53.622;9.958;2023-03-01T13:09:36;6.30;1.00
8152;DHT22;4117;53.622;9.958;2023-03-01T13:12:42;6.20;1.00
8152;DHT22;4117;53.622;9.958;2023-03-01T13:15:26;6.20;1.00
8152;DHT22;4117;53.622;9.958;2023-03-01T13:17:54;6.20;1.00
8152;DHT22;4117;53.622;9.958;2023-03-01T13:20:26;6.20;1.00
8152;DHT22;4117;53.622;9.958;2023-03-01T13:23:03;6.20;1.00
8152;DHT22;4117;53.622;9.958;2023-03-01T13:25:30;6.10;1.00
8152;DHT22;4117;53.622;9.958;2023-03-01T13:30:59;6.00;1.00
8152;DHT22;4117;53.622;9.958;2023-03-01T13:33:44;6.10;1.00
8152;DHT22;4117;53.622;9.958;2023-03-01T13:38:56;6.10;1.00
8152;DHT22;4117;53.622;9.958;2023-03-01T13:41:49;6.10;1.00
8152;DHT22;4117;53.622;9.958;2023-03-01T13:44:21;6.10;1.00
8152;DHT22;4117;53.622;9.958;2023-03-01T13:46:56;6.00;1.00
8152;DHT22;4117;53.622;9.958;2023-03-01T13:49:27;6.00;1.00
8152;DHT22;4117;53.622;9.958;2023-03-01T13:51:55;6.00;1.00
8152;DHT22;4117;53.622;9.958;2023-03-01T13:54:25;6.10;1.00
8152;DHT22;4117;53.622;9.958;2023-03-01T13:56:53;6.10;1.00
8152;DHT22;4117;53.622;9.958;2023-03-01T13:59:22;6.10;1.00
8152;DHT22;4117;53.622;9.958;2023-03-01T14:01:55;6.10;1.00
8152;DHT22;4117;53.622;9.958;2023-03-01T14:04:23;6.10;1.00
8152;DHT22;4117;53.622;9.958;2023-03-01T14:06:51;6.20;1.00
8152;DHT22;4117;53.622;9.958;2023-03-01T14:09:20;6.20;1.00
8152;DHT22;4117;53.622;9.958;2023-03-01T14:12:08;6.20;1.00
8152;DHT22;4117;53.622;9.958;2023-03-01T14:14:51;6.20;1.00
8152;DHT22;4117;53.622;9.958;2023-03-01T14:17:40;6.20;1.00
8152;DHT22;4117;53.622;9.958;2023-03-01T14:20:12;6.30;1.00
8152;DHT22;4117;53.622;9.958;2023-03-01T14:22:42;6.30;1.00
8152;DHT22;4117;53.622;9.958;2023-03-01T14:25:20;6.40;1.00
8152;DHT22;4117;53.622;9.958;2023-03-01T14:27:54;6.40;1.00
8152;DHT22;4117;53.622;9.958;2023-03-01T14:30:23;6.40;1.00
8152;DHT22;4117;53.622;9.958;2023-03-01T14:32:57;6.40;1.00
8152;DHT22;4117;53.622;9.958;2023-03-01T14:35:27;6.50;1.00
8152;DHT22;4117;53.622;9.958;2023-03-01T14:37:54;6.50;1.00
8152;DHT22;4117;53.622;9.958;2023-03-01T14:40:24;6.50;1.00
8152;DHT22;4117;53.622;9.958;2023-03-01T14:42:52;6.60;1.00
8152;DHT22;4117;53.622;9.958;2023-03-01T14:45:20;6.60;1.00
8152;DHT22;4117;53.622;9.958;2023-03-01T14:47:47;6.70;1.00
8152;DHT22;4117;53.622;9.958;2023-03-01T14:50:28;6.70;1.00
8152;DHT22;4117;53.622;9.958;2023-03-01T14:52:58;6.70;1.00
8152;DHT22;4117;53.622;9.958;2023-03-01T14:55:29;6.80;1.00
8152;DHT22;4117;53.622;9.958;2023-03-01T14:57:58;6.80;1.00
8152;DHT22;4117;53.622;9.958;2023-03-01T15:00:27;6.90;1.00
8152;DHT22;4117;53.622;9.958;2023-03-01T15:02:56;6.90;1.00
8152;DHT22;4117;53.622;9.958;2023-03-01T15:05:29;7.00;1.00
8152;DHT22;4117;53.622;9.958;2023-03-01T15:07:57;6.90;1.00
8152;DHT22;4117;53.622;9.958;2023-03-01T15:10:26;7.00;1.00
8152;DHT22;4117;53.622;9.958;2023-03-01T15:12:53;6.90;1.00
8152;DHT22;4117;53.622;9.958;2023-03-01T15:15:36;6.90;1.00
8152;DHT22;4117;53.622;9.958;2023-03-01T15:18:13;7.00;1.00
8152;DHT22;4117;53.622;9.958;2023-03-01T15:20:43;7.00;1.00
8152;DHT22;4117;53.622;9.958;2023-03-01T15:23:24;6.90;1.00
8152;DHT22;4117;53.622;9.958;2023-03-01T15:25:52;6.90;1.00
8152;DHT22;4117;53.622;9.958;2023-03-01T15:28:24;6.90;1.00
8152;DHT22;4117;53.622;9.958;2023-03-01T15:30:56;6.90;1.00
8152;DHT22;4117;53.622;9.958;2023-03-01T15:33:37;6.90;1.00
8152;DHT22;4117;53.622;9.958;2023-03-01T15:36:37;6.90;1.00
8152;DHT22;4117;53.622;9.958;2023-03-01T15:39:05;6.90;1.00
8152;DHT22;4117;53.622;9.958;2023-03-01T15:41:52;6.90;1.00
8152;DHT22;4117;53.622;9.958;2023-03-01T15:44:26;6.90;1.00
8152;DHT22;4117;53.622;9.958;2023-03-01T15:46:53;6.80;1.00
8152;DHT22;4117;53.622;9.958;2023-03-01T15:49:33;6.80;1.00
8152;DHT22;4117;53.622;9.958;2023-03-01T15:52:03;6.80;1.00
8152;DHT22;4117;53.622;9.958;2023-03-01T15:54:31;6.80;1.00
8152;DHT22;4117;53.622;9.958;2023-03-01T15:56:59;6.80;1.00
8152;DHT22;4117;53.622;9.958;2023-03-01T15:59:26;6.80;1.00
8152;DHT22;4117;53.622;9.958;2023-03-01T16:01:53;6.80;1.00
8152;DHT22;4117;53.622;9.958;2023-03-01T16:04:20;6.80;1.00
8152;DHT22;4117;53.622;9.958;2023-03-01T16:06:49;6.70;1.00
8152;DHT22;4117;53.622;9.958;2023-03-01T16:09:21;6.70;1.00
8152;DHT22;4117;53.622;9.958;2023-03-01T16:11:50;6.70;1.00
8152;DHT22;4117;53.622;9.958;2023-03-01T16:14:17;6.70;1.00
8152;DHT22;4117;53.622;9.958;2023-03-01T16:16:44;6.60;1.00
8152;DHT22;4117;53.622;9.958;2023-03-01T16:19:11;6.60;1.00
8152;DHT22;4117;53.622;9.958;2023-03-01T16:21:39;6.60;1.00
8152;DHT22;4117;53.622;9.958;2023-03-01T16:24:06;6.60;1.00
8152;DHT22;4117;53.622;9.958;2023-03-01T16:26:36;6.50;1.00
8152;DHT22;4117;53.622;9.958;2023-03-01T16:29:04;6.40;1.00
8152;DHT22;4117;53.622;9.958;2023-03-01T16:31:31;6.40;1.00
8152;DHT22;4117;53.622;9.958;2023-03-01T16:33:58;6.40;1.00
8152;DHT22;4117;53.622;9.958;2023-03-01T16:36:26;6.40;1.00
8152;DHT22;4117;53.622;9.958;2023-03-01T16:38:55;6.30;1.00
8152;DHT22;4117;53.622;9.958;2023-03-01T16:41:23;6.30;1.00
8152;DHT22;4117;53.622;9.958;2023-03-01T16:43:51;6.30;1.00
8152;DHT22;4117;53.622;9.958;2023-03-01T16:46:20;6.20;1.00
8152;DHT22;4117;53.622;9.958;2023-03-01T16:48:48;6.20;1.00
8152;DHT22;4117;53.622;9.958;2023-03-01T16:51:15;6.10;1.00
8152;DHT22;4117;53.622;9.958;2023-03-01T16:53:43;6.00;1.00
8152;DHT22;4117;53.622;9.958;2023-03-01T16:56:11;6.00;1.00
8152;DHT22;4117;53.622;9.958;2023-03-01T16:58:39;6.00;1.00
8152;DHT22;4117;53.622;9.958;2023-03-01T17:01:09;5.90;1.00
8152;DHT22;4117;53.622;9.958;2023-03-01T17:03:38;5.90;1.00